createdAt,value
2022-10-21T00:00:33.865Z,75.35
2022-10-21T00:03:01.126Z,75.37
2022-10-21T00:05:28.382Z,75.33
2022-10-21T00:07:55.754Z,75.27
2022-10-21T00:10:22.934Z,75.51
2022-10-21T00:12:49.885Z,75.34
2022-10-21T00:15:16.919Z,75.54
2022-10-21T00:17:43.973Z,75.50
2022-10-21T00:20:12.608Z,75.74
2022-10-21T00:22:40.025Z,75.29
2022-10-21T00:25:07.755Z,75.49
2022-10-21T00:27:34.891Z,75.63
2022-10-21T00:30:02.954Z,75.63
2022-10-21T00:32:29.835Z,75.71
2022-10-21T00:34:56.866Z,75.35
2022-10-21T00:37:24.025Z,75.85
2022-10-21T00:39:52.428Z,75.46
2022-10-21T00:42:22.474Z,75.70
2022-10-21T00:45:07.902Z,75.51
2022-10-21T00:47:49.227Z,75.80
2022-10-21T00:50:25.176Z,75.86
2022-10-21T00:52:53.313Z,75.89
2022-10-21T00:55:21.222Z,75.69
2022-10-21T00:57:48.186Z,75.93
2022-10-21T01:00:15.594Z,75.69
2022-10-21T01:02:42.594Z,75.69
2022-10-21T01:05:10.492Z,75.75
2022-10-21T01:07:40.358Z,75.80
2022-10-21T01:10:09.196Z,75.37
2022-10-21T01:12:44.333Z,75.72
2022-10-21T01:15:36.145Z,75.56
2022-10-21T01:18:24.654Z,75.62
2022-10-21T01:21:13.371Z,75.83
2022-10-21T01:23:59.175Z,75.34
2022-10-21T01:26:50.672Z,75.26
2022-10-21T01:29:42.163Z,75.66
2022-10-21T01:32:21.182Z,75.15
2022-10-21T01:34:59.589Z,75.36
2022-10-21T01:37:45.988Z,75.45
2022-10-21T01:40:18.583Z,75.32
2022-10-21T01:43:03.216Z,75.19
2022-10-21T01:45:49.853Z,75.19
2022-10-21T01:48:21.154Z,75.25
2022-10-21T01:50:52.827Z,75.10
2022-10-21T01:53:22.146Z,75.38
2022-10-21T01:55:49.434Z,75.33
2022-10-21T01:58:19.893Z,75.13
2022-10-21T02:00:48.352Z,75.26
2022-10-21T02:03:19.592Z,75.58
2022-10-21T02:05:46.602Z,75.34
2022-10-21T02:08:13.561Z,75.41
2022-10-21T02:10:43.484Z,75.42
2022-10-21T02:13:12.521Z,75.40
2022-10-21T02:15:40.803Z,75.40
2022-10-21T02:18:20.024Z,75.43
2022-10-21T02:20:47.651Z,75.43
2022-10-21T02:23:17.771Z,75.76
2022-10-21T02:25:48.361Z,75.78
2022-10-21T02:28:15.586Z,75.51
2022-10-21T02:31:04.010Z,75.61
2022-10-21T02:33:54.326Z,75.55
2022-10-21T02:36:29.223Z,75.93
2022-10-21T02:39:02.200Z,75.78
2022-10-21T02:41:30.083Z,75.68
2022-10-21T02:43:59.373Z,75.88
2022-10-21T02:46:27.453Z,76.04
2022-10-21T02:48:54.369Z,75.89
2022-10-21T02:51:21.338Z,75.89
2022-10-21T02:53:48.308Z,75.88
2022-10-21T02:56:15.363Z,76.15
2022-10-21T02:58:42.238Z,76.27
2022-10-21T03:01:09.403Z,76.24
2022-10-21T03:03:36.354Z,76.22
2022-10-21T03:06:03.503Z,76.04
2022-10-21T03:08:30.440Z,76.37
2022-10-21T03:10:57.477Z,76.11
2022-10-21T03:13:24.373Z,76.16
2022-10-21T03:15:51.414Z,76.27
2022-10-21T03:18:19.067Z,76.45
2022-10-21T03:20:50.162Z,76.13
2022-10-21T03:23:20.953Z,76.03
2022-10-21T03:25:48.008Z,76.11
2022-10-21T03:28:15.214Z,76.06
2022-10-21T03:30:42.265Z,75.95
2022-10-21T03:33:09.310Z,75.78
2022-10-21T03:35:36.274Z,75.79
2022-10-21T03:38:03.319Z,75.65
2022-10-21T03:40:30.638Z,75.66
2022-10-21T03:42:58.673Z,75.65
2022-10-21T03:45:26.394Z,75.44
2022-10-21T03:47:53.389Z,75.55
2022-10-21T03:50:26.160Z,75.52
2022-10-21T03:52:53.962Z,75.42
2022-10-21T03:55:24.193Z,75.37
2022-10-21T03:57:52.403Z,75.42
2022-10-21T04:00:19.962Z,75.44
2022-10-21T04:02:47.241Z,75.37
2022-10-21T04:05:14.530Z,75.55
2022-10-21T04:07:41.750Z,75.39
2022-10-21T04:10:09.697Z,75.39
2022-10-21T04:12:37.061Z,75.24
2022-10-21T04:15:05.867Z,75.27
2022-10-21T04:17:32.872Z,75.22
2022-10-21T04:19:59.940Z,75.15
2022-10-21T04:22:26.994Z,74.98
2022-10-21T04:24:53.902Z,75.03
2022-10-21T04:27:20.927Z,75.19
2022-10-21T04:29:47.870Z,75.10
2022-10-21T04:32:15.039Z,75.00
2022-10-21T04:34:43.113Z,74.94
2022-10-21T04:37:10.202Z,75.14
2022-10-21T04:39:37.120Z,74.83
2022-10-21T04:42:04.216Z,75.12
2022-10-21T04:44:31.096Z,74.90
2022-10-21T04:46:58.256Z,74.79
2022-10-21T04:49:25.254Z,75.08
2022-10-21T04:51:52.234Z,75.03
2022-10-21T04:54:19.298Z,75.26
2022-10-21T04:56:46.193Z,74.83
2022-10-21T04:59:13.469Z,75.11
2022-10-21T05:01:40.385Z,75.10
2022-10-21T05:04:07.884Z,74.89
2022-10-21T05:06:34.757Z,74.91
2022-10-21T05:09:01.854Z,74.82
2022-10-21T05:11:30.560Z,74.84
2022-10-21T05:13:57.576Z,74.85
2022-10-21T05:16:24.460Z,74.79
2022-10-21T05:18:51.644Z,74.87
2022-10-21T05:21:18.624Z,75.04
2022-10-21T05:23:45.574Z,74.95
2022-10-21T05:26:12.568Z,74.62
2022-10-21T05:28:39.497Z,74.99
2022-10-21T05:31:06.499Z,75.02
2022-10-21T05:33:33.566Z,74.93
2022-10-21T05:36:02.738Z,74.74
2022-10-21T05:38:29.895Z,74.67
2022-10-21T05:40:57.567Z,74.88
2022-10-21T05:43:24.568Z,74.65
2022-10-21T05:45:51.642Z,74.65
2022-10-21T05:48:18.739Z,74.60
2022-10-21T05:50:46.818Z,74.53
2022-10-21T05:53:14.574Z,74.60
2022-10-21T05:55:41.477Z,74.65
2022-10-21T05:58:08.484Z,74.53
2022-10-21T06:00:35.600Z,74.49
2022-10-21T06:03:02.636Z,74.46
2022-10-21T06:05:29.551Z,74.47
2022-10-21T06:07:56.556Z,74.49
2022-10-21T06:10:28.147Z,74.53
2022-10-21T06:12:56.246Z,74.23
2022-10-21T06:15:23.298Z,74.31
2022-10-21T06:17:51.909Z,74.35
2022-10-21T06:20:19.203Z,74.24
2022-10-21T06:22:46.163Z,74.35
2022-10-21T06:25:13.289Z,74.30
2022-10-21T06:27:40.939Z,74.11
2022-10-21T06:30:08.812Z,74.63
2022-10-21T06:32:35.971Z,74.15
2022-10-21T06:35:03.335Z,74.32
2022-10-21T06:37:30.271Z,74.11
2022-10-21T06:39:57.828Z,74.03
2022-10-21T06:42:24.701Z,74.11
2022-10-21T06:44:52.745Z,74.01
2022-10-21T06:47:21.410Z,73.91
2022-10-21T06:49:48.422Z,74.00
2022-10-21T06:52:15.474Z,74.12
2022-10-21T06:54:42.442Z,73.83
2022-10-21T06:57:09.443Z,73.93
2022-10-21T06:59:36.421Z,74.11
2022-10-21T07:02:03.496Z,74.00
2022-10-21T07:04:30.561Z,73.97
2022-10-21T07:06:57.743Z,73.89
2022-10-21T07:09:24.828Z,73.88
2022-10-21T07:11:51.891Z,73.89
2022-10-21T07:14:18.933Z,74.01
2022-10-21T07:16:46.290Z,74.14
2022-10-21T07:19:13.321Z,73.95
2022-10-21T07:21:40.404Z,73.53
2022-10-21T07:24:07.470Z,73.65
2022-10-21T07:26:35.118Z,73.84
2022-10-21T07:29:02.342Z,74.02
2022-10-21T07:31:32.421Z,74.04
2022-10-21T07:34:01.180Z,73.74
2022-10-21T07:36:30.573Z,73.64
2022-10-21T07:39:03.212Z,73.68
2022-10-21T07:41:51.571Z,73.80
2022-10-21T07:44:20.901Z,73.67
2022-10-21T07:46:48.983Z,73.77
2022-10-21T07:49:16.991Z,73.47
2022-10-21T07:51:45.503Z,73.51
2022-10-21T07:54:14.465Z,73.59
2022-10-21T07:56:44.846Z,73.32
2022-10-21T07:59:13.450Z,73.78
2022-10-21T08:01:44.859Z,73.71
2022-10-21T08:04:14.327Z,74.01
2022-10-21T08:06:41.608Z,73.37
2022-10-21T08:09:08.841Z,73.28
2022-10-21T08:11:36.371Z,73.34
2022-10-21T08:14:06.821Z,73.85
2022-10-21T08:16:34.024Z,73.72
2022-10-21T08:19:01.421Z,73.67
2022-10-21T08:21:28.981Z,73.34
2022-10-21T08:23:56.021Z,73.31
2022-10-21T08:26:23.041Z,73.70
2022-10-21T08:28:50.032Z,73.22
2022-10-21T08:31:19.972Z,73.31
2022-10-21T08:33:47.133Z,73.07
2022-10-21T08:36:22.973Z,73.12
2022-10-21T08:38:50.131Z,73.69
2022-10-21T08:41:30.701Z,73.38
2022-10-21T08:44:06.770Z,73.44
2022-10-21T08:46:38.392Z,72.93
2022-10-21T08:49:44.422Z,73.06
2022-10-21T08:52:15.560Z,73.47
2022-10-21T08:55:02.211Z,72.83
2022-10-21T08:57:29.504Z,72.70
2022-10-21T08:59:56.651Z,72.91
2022-10-21T09:02:39.034Z,72.73
2022-10-21T09:05:09.022Z,72.93
2022-10-21T09:07:41.972Z,72.33
2022-10-21T09:10:21.443Z,72.25
2022-10-21T09:13:01.452Z,72.29
2022-10-21T09:15:46.333Z,72.48
2022-10-21T09:18:40.371Z,72.23
2022-10-21T09:21:18.592Z,72.22
2022-10-21T09:23:53.341Z,72.20
2022-10-21T09:26:41.759Z,72.07
2022-10-21T09:29:33.082Z,72.11
2022-10-21T09:32:10.131Z,72.06
2022-10-21T09:34:45.884Z,72.10
2022-10-21T09:37:36.105Z,71.78
2022-10-21T09:40:25.482Z,71.85
2022-10-21T09:42:56.605Z,71.41
2022-10-21T09:45:26.511Z,71.72
2022-10-21T09:47:59.375Z,71.60
2022-10-21T09:50:27.184Z,71.51
2022-10-21T09:53:21.442Z,71.85
2022-10-21T09:55:58.408Z,71.62
2022-10-21T09:58:28.345Z,71.75
2022-10-21T10:00:55.753Z,71.34
2022-10-21T10:03:42.821Z,71.48
2022-10-21T10:06:09.844Z,71.57
2022-10-21T10:08:42.092Z,71.34
2022-10-21T10:11:09.632Z,71.49
2022-10-21T10:13:46.101Z,71.15
2022-10-21T10:16:22.798Z,71.50
2022-10-21T10:18:52.064Z,71.08
2022-10-21T10:21:22.763Z,71.36
2022-10-21T10:23:54.937Z,71.62
2022-10-21T10:26:26.692Z,71.45
2022-10-21T10:28:57.469Z,71.43
2022-10-21T10:31:30.441Z,71.00
2022-10-21T10:34:04.059Z,71.29
2022-10-21T10:36:34.509Z,71.28
2022-10-21T10:39:03.491Z,70.88
2022-10-21T10:41:46.811Z,71.29
2022-10-21T10:44:28.791Z,71.10
2022-10-21T10:46:57.834Z,71.01
2022-10-21T10:49:25.492Z,70.85
2022-10-21T10:52:21.565Z,71.16
2022-10-21T10:54:49.570Z,70.89
2022-10-21T10:57:34.247Z,71.06
2022-10-21T11:00:15.194Z,71.06
2022-10-21T11:02:45.017Z,70.94
2022-10-21T11:05:34.090Z,70.70
2022-10-21T11:08:10.662Z,70.68
2022-10-21T11:10:41.281Z,71.07
2022-10-21T11:13:22.532Z,71.36
2022-10-21T11:15:58.370Z,71.26
2022-10-21T11:18:48.723Z,70.71
2022-10-21T11:21:19.800Z,71.03
2022-10-21T11:24:25.448Z,71.25
2022-10-21T11:27:00.620Z,71.20
2022-10-21T11:29:36.795Z,71.22
2022-10-21T11:32:22.369Z,71.18
2022-10-21T11:35:34.216Z,71.27
2022-10-21T11:38:11.925Z,71.16
2022-10-21T11:40:50.132Z,71.12
2022-10-21T11:43:33.877Z,71.38
2022-10-21T11:46:38.385Z,70.82
2022-10-21T11:49:32.982Z,71.48
2022-10-21T11:52:24.031Z,71.44
2022-10-21T11:55:16.161Z,71.50
2022-10-21T11:58:02.530Z,71.46
2022-10-21T12:00:37.436Z,71.60
2022-10-21T12:03:13.410Z,71.91
2022-10-21T12:05:51.769Z,71.64
2022-10-21T12:08:34.395Z,71.94
2022-10-21T12:11:10.461Z,71.94
2022-10-21T12:13:54.151Z,72.11
2022-10-21T12:16:26.630Z,72.30
2022-10-21T12:19:00.351Z,72.17
2022-10-21T12:21:34.461Z,72.38
2022-10-21T12:24:39.020Z,72.44
2022-10-21T12:27:32.571Z,72.33
2022-10-21T12:30:05.706Z,72.92
2022-10-21T12:32:35.501Z,72.93
2022-10-21T12:35:03.482Z,72.80
2022-10-21T12:37:46.643Z,73.07
2022-10-21T12:40:18.273Z,73.10
2022-10-21T12:42:47.676Z,73.14
2022-10-21T12:45:28.775Z,73.37
2022-10-21T12:47:56.672Z,73.31
2022-10-21T12:50:31.935Z,73.53
2022-10-21T12:53:23.732Z,73.67
2022-10-21T12:55:55.936Z,73.77
2022-10-21T12:58:35.319Z,73.60
2022-10-21T13:01:02.993Z,73.76
2022-10-21T13:03:50.040Z,73.87
2022-10-21T13:06:21.118Z,74.23
2022-10-21T13:08:53.869Z,73.88
2022-10-21T13:11:38.614Z,73.89
2022-10-21T13:14:35.105Z,73.98
2022-10-21T13:17:21.540Z,74.02
2022-10-21T13:19:52.902Z,74.07
2022-10-21T13:22:35.504Z,74.02
2022-10-21T13:25:28.231Z,74.24
2022-10-21T13:28:06.991Z,74.14
2022-10-21T13:30:39.330Z,74.09
2022-10-21T13:33:31.515Z,74.34
2022-10-21T13:36:11.809Z,74.29
2022-10-21T13:38:48.364Z,74.24
2022-10-21T13:41:25.767Z,74.14
2022-10-21T13:43:58.526Z,73.90
2022-10-21T13:46:39.160Z,74.25
2022-10-21T13:49:29.871Z,74.49
2022-10-21T13:51:57.141Z,74.35
2022-10-21T13:54:24.162Z,74.34
2022-10-21T13:56:51.163Z,74.51
2022-10-21T13:59:26.462Z,74.49
2022-10-21T14:01:55.883Z,74.49
2022-10-21T14:04:25.553Z,74.13
2022-10-21T14:07:04.973Z,74.58
2022-10-21T14:09:35.572Z,74.54
2022-10-21T14:12:06.097Z,74.58
2022-10-21T14:14:34.310Z,74.54
2022-10-21T14:17:09.897Z,74.66
2022-10-21T14:19:38.695Z,74.55
2022-10-21T14:24:34.406Z,74.63
2022-10-21T14:27:02.121Z,74.63
2022-10-21T14:29:33.253Z,74.73
2022-10-21T14:32:00.865Z,74.74
2022-10-21T14:34:32.654Z,74.71
2022-10-21T14:37:09.319Z,74.56
2022-10-21T14:39:39.901Z,74.70
2022-10-21T14:42:13.135Z,74.55
2022-10-21T14:44:42.412Z,74.96
2022-10-21T14:47:18.438Z,74.99
2022-10-21T14:49:50.597Z,74.64
2022-10-21T14:52:21.588Z,74.69
2022-10-21T14:54:57.316Z,74.96
2022-10-21T14:57:54.189Z,75.26
2022-10-21T15:00:32.687Z,75.09
2022-10-21T15:03:00.747Z,74.88
2022-10-21T15:05:42.954Z,74.65
2022-10-21T15:08:15.276Z,74.96
2022-10-21T15:10:42.611Z,75.05
2022-10-21T15:13:21.781Z,75.04
2022-10-21T15:15:54.291Z,74.53
2022-10-21T15:18:28.601Z,74.68
2022-10-21T15:20:59.160Z,74.95
2022-10-21T15:23:41.570Z,74.49
2022-10-21T15:26:13.183Z,74.98
2022-10-21T15:28:41.792Z,75.11
2022-10-21T15:31:18.338Z,74.60
2022-10-21T15:33:45.307Z,75.03
2022-10-21T15:36:13.245Z,74.65
2022-10-21T15:38:50.315Z,75.11
2022-10-21T15:41:22.369Z,74.99
2022-10-21T15:44:14.311Z,74.84
2022-10-21T15:46:46.990Z,74.96
2022-10-21T15:49:22.122Z,74.93
2022-10-21T15:51:49.745Z,75.10
2022-10-21T15:54:18.122Z,75.14
2022-10-21T15:56:47.592Z,75.42
2022-10-21T15:59:22.826Z,74.85
2022-10-21T16:01:50.711Z,74.99
2022-10-21T16:04:17.971Z,75.25
2022-10-21T16:06:47.820Z,74.77
2022-10-21T16:09:20.570Z,75.23
2022-10-21T16:11:59.085Z,75.32
2022-10-21T16:14:29.491Z,75.43
2022-10-21T16:16:58.650Z,75.03
2022-10-21T16:19:25.780Z,74.91
2022-10-21T16:21:52.852Z,75.38
2022-10-21T16:24:19.774Z,75.39
2022-10-21T16:26:49.175Z,75.40
2022-10-21T16:29:24.025Z,75.32
2022-10-21T16:31:51.635Z,75.39
2022-10-21T16:34:18.938Z,75.20
2022-10-21T16:36:45.994Z,75.17
2022-10-21T16:39:18.796Z,74.96
2022-10-21T16:41:45.935Z,75.25
2022-10-21T16:44:12.836Z,75.08
2022-10-21T16:46:48.257Z,75.39
2022-10-21T16:49:17.448Z,75.29
2022-10-21T16:51:46.612Z,75.45
2022-10-21T16:54:14.667Z,75.41
2022-10-21T16:56:41.633Z,75.33
2022-10-21T16:59:08.733Z,75.08
2022-10-21T17:01:36.163Z,75.45
2022-10-21T17:04:03.552Z,75.22
2022-10-21T17:06:30.645Z,75.63
2022-10-21T17:08:57.959Z,75.47
2022-10-21T17:11:39.279Z,75.58
2022-10-21T17:14:09.165Z,75.25
2022-10-21T17:16:36.251Z,75.36
2022-10-21T17:19:03.490Z,75.28
2022-10-21T17:21:32.567Z,75.34
2022-10-21T17:24:01.626Z,75.28
2022-10-21T17:26:30.329Z,75.28
2022-10-21T17:28:57.902Z,75.02
2022-10-21T17:31:27.006Z,75.38
2022-10-21T17:33:57.210Z,75.61
2022-10-21T17:36:24.271Z,75.28
2022-10-21T17:38:51.449Z,75.31
2022-10-21T17:41:20.600Z,75.67
2022-10-21T17:43:47.804Z,75.39
2022-10-21T17:46:18.914Z,75.41
2022-10-21T17:48:50.734Z,75.34
2022-10-21T17:51:20.051Z,75.22
2022-10-21T17:53:56.510Z,75.66
2022-10-21T17:56:24.381Z,75.28
2022-10-21T17:58:56.386Z,75.47
2022-10-21T18:01:26.192Z,75.63
2022-10-21T18:03:54.716Z,75.44
2022-10-21T18:06:21.923Z,75.54
2022-10-21T18:08:49.943Z,75.54
2022-10-21T18:11:19.915Z,75.59
2022-10-21T18:13:50.939Z,75.48
2022-10-21T18:16:23.912Z,75.85
2022-10-21T18:18:52.527Z,75.83
2022-10-21T18:21:22.282Z,75.61
2022-10-21T18:23:52.692Z,75.69
2022-10-21T18:26:27.436Z,76.01
2022-10-21T18:28:58.358Z,75.81
2022-10-21T18:31:36.304Z,76.04
2022-10-21T18:34:05.429Z,75.73
2022-10-21T18:36:32.896Z,75.95
2022-10-21T18:39:00.559Z,76.18
2022-10-21T18:41:28.331Z,76.12
2022-10-21T18:43:58.379Z,76.15
2022-10-21T18:46:25.964Z,75.71
2022-10-21T18:48:53.271Z,76.05
2022-10-21T18:51:21.510Z,76.13
2022-10-21T18:53:50.131Z,76.19
2022-10-21T18:56:19.919Z,76.07
2022-10-21T18:58:46.989Z,76.28
2022-10-21T19:01:16.919Z,76.17
2022-10-21T19:03:44.797Z,76.24
2022-10-21T19:06:30.719Z,76.16
2022-10-21T19:08:58.410Z,76.69
2022-10-21T19:11:26.364Z,76.34
2022-10-21T19:13:53.964Z,76.26
2022-10-21T19:16:21.724Z,76.26
2022-10-21T19:18:50.662Z,76.61
2022-10-21T19:21:19.629Z,76.58
2022-10-21T19:23:46.846Z,76.73
2022-10-21T19:26:18.769Z,76.30
2022-10-21T19:28:49.531Z,76.56
2022-10-21T19:31:18.470Z,76.56
2022-10-21T19:33:45.818Z,76.93
2022-10-21T19:36:12.806Z,76.62
2022-10-21T19:38:44.658Z,76.86
2022-10-21T19:41:20.668Z,76.91
2022-10-21T19:43:52.666Z,76.90
2022-10-21T19:46:24.950Z,76.67
2022-10-21T19:48:54.614Z,76.64
2022-10-21T19:51:25.025Z,77.01
2022-10-21T19:53:54.600Z,76.98
2022-10-21T19:56:29.619Z,77.28
2022-10-21T19:59:03.996Z,76.95
2022-10-21T20:01:34.568Z,77.00
2022-10-21T20:04:03.005Z,77.05
2022-10-21T20:06:33.800Z,77.07
2022-10-21T20:09:10.918Z,76.92
2022-10-21T20:11:38.919Z,77.03
2022-10-21T20:14:06.117Z,77.35
2022-10-21T20:16:36.810Z,77.21
2022-10-21T20:19:07.187Z,77.30
2022-10-21T20:21:36.181Z,77.13
2022-10-21T20:24:03.154Z,77.18
2022-10-21T20:26:30.551Z,77.46
2022-10-21T20:28:57.877Z,77.51
2022-10-21T20:31:25.295Z,77.42
2022-10-21T20:33:53.887Z,77.23
2022-10-21T20:36:34.711Z,77.22
2022-10-21T20:39:03.434Z,77.53
2022-10-21T20:41:34.529Z,77.35
2022-10-21T20:44:03.090Z,77.54
2022-10-21T20:46:34.860Z,77.69
2022-10-21T20:49:06.110Z,77.17
2022-10-21T20:51:33.972Z,77.44
2022-10-21T20:54:04.092Z,77.43
2022-10-21T20:56:33.854Z,77.57
2022-10-21T20:59:01.385Z,77.73
2022-10-21T21:01:33.472Z,77.76
2022-10-21T21:04:07.347Z,77.55
2022-10-21T21:06:41.873Z,77.55
2022-10-21T21:11:56.829Z,77.62
2022-10-21T21:14:24.143Z,77.86
2022-10-21T21:16:51.399Z,77.78
2022-10-21T21:19:20.763Z,77.89
2022-10-21T21:21:48.731Z,77.59
2022-10-21T21:24:15.861Z,77.87
2022-10-21T21:26:42.886Z,77.74
2022-10-21T21:29:10.514Z,77.87
2022-10-21T21:31:39.038Z,77.66
2022-10-21T21:34:06.848Z,77.79
2022-10-21T21:36:34.686Z,78.16
2022-10-21T21:39:01.799Z,77.87
2022-10-21T21:41:28.998Z,78.20
2022-10-21T21:43:57.112Z,77.85
2022-10-21T21:46:24.491Z,78.06
2022-10-21T21:48:55.260Z,78.45
2022-10-21T21:51:24.834Z,78.05
2022-10-21T21:53:52.382Z,78.30
2022-10-21T21:56:20.806Z,78.28
2022-10-21T21:58:48.615Z,78.36
2022-10-21T22:01:18.286Z,78.32
2022-10-21T22:03:47.129Z,78.25
2022-10-21T22:06:14.405Z,78.26
2022-10-21T22:08:42.523Z,77.99
2022-10-21T22:11:12.504Z,78.27
2022-10-21T22:13:40.360Z,78.42
2022-10-21T22:16:09.202Z,78.36
2022-10-21T22:18:36.320Z,78.06
2022-10-21T22:21:06.307Z,78.47
2022-10-21T22:23:33.407Z,78.47
2022-10-21T22:26:00.534Z,78.32
2022-10-21T22:28:27.874Z,78.65
2022-10-21T22:31:00.530Z,78.71
2022-10-21T22:33:28.430Z,78.34
2022-10-21T22:35:55.756Z,78.41
2022-10-21T22:38:22.962Z,78.50
2022-10-21T22:41:05.224Z,78.57
2022-10-21T22:43:34.314Z,78.74
2022-10-21T22:46:09.806Z,78.73
2022-10-21T22:48:48.297Z,78.51
2022-10-21T22:51:15.334Z,78.67
2022-10-21T22:53:42.370Z,78.60
2022-10-21T22:56:09.275Z,78.40
2022-10-21T22:58:36.289Z,78.48
2022-10-21T23:01:07.700Z,78.80
2022-10-21T23:03:34.852Z,78.67
2022-10-21T23:06:01.852Z,78.93
2022-10-21T23:08:29.046Z,78.84
2022-10-21T23:10:56.800Z,78.84
2022-10-21T23:13:23.824Z,78.82
2022-10-21T23:15:51.033Z,78.98
2022-10-21T23:18:18.953Z,78.71
2022-10-21T23:20:45.918Z,79.13
2022-10-21T23:23:12.883Z,78.76
2022-10-21T23:25:39.999Z,79.03
2022-10-21T23:28:09.932Z,79.04
2022-10-21T23:30:37.782Z,78.84
2022-10-21T23:33:04.815Z,78.69
2022-10-21T23:35:32.682Z,79.00
2022-10-21T23:38:00.200Z,79.14
2022-10-21T23:40:28.072Z,78.94
2022-10-21T23:42:55.380Z,79.09
2022-10-21T23:45:22.336Z,78.82
2022-10-21T23:47:49.771Z,79.18
2022-10-21T23:50:16.923Z,78.76
2022-10-21T23:52:43.953Z,79.12
2022-10-21T23:55:10.895Z,79.15
2022-10-21T23:57:38.010Z,78.84
